createdAt,value
2022-08-30T00:04:08.988Z,1.48
2022-08-30T00:09:31.749Z,1.65
2022-08-30T00:14:52.441Z,1.30
2022-08-30T00:20:18.642Z,1.50
2022-08-30T00:25:39.594Z,1.58
2022-08-30T00:31:04.071Z,1.52
2022-08-30T00:41:45.582Z,1.40
2022-08-30T00:47:06.371Z,1.30
2022-08-30T00:52:27.165Z,1.52
2022-08-30T00:57:53.044Z,1.45
2022-08-30T01:03:13.784Z,1.10
2022-08-30T01:08:35.318Z,1.55
2022-08-30T01:13:56.471Z,1.20
2022-08-30T01:19:32.106Z,1.25
2022-08-30T01:24:57.519Z,1.25
2022-08-30T01:30:18.248Z,1.58
2022-08-30T01:35:48.778Z,1.10
2022-08-30T01:41:17.811Z,1.55
2022-08-30T01:46:42.213Z,1.25
2022-08-30T01:52:04.759Z,1.27
2022-08-30T01:57:28.316Z,1.30
2022-08-30T02:02:49.369Z,0.93
2022-08-30T02:08:12.741Z,1.20
2022-08-30T02:13:35.246Z,1.45
2022-08-30T02:18:57.463Z,0.90
2022-08-30T02:24:18.291Z,0.95
2022-08-30T02:29:39.116Z,1.35
2022-08-30T02:34:59.995Z,1.08
2022-08-30T02:40:22.203Z,1.00
2022-08-30T02:45:43.114Z,1.27
2022-08-30T02:51:11.167Z,1.02
2022-08-30T02:56:32.719Z,1.33
2022-08-30T03:01:53.325Z,1.40
2022-08-30T03:07:14.497Z,1.30
2022-08-30T03:12:35.030Z,1.50
2022-08-30T03:17:56.357Z,1.25
2022-08-30T03:23:21.576Z,1.50
2022-08-30T03:28:43.758Z,1.38
2022-08-30T03:34:05.413Z,1.30
2022-08-30T03:39:26.077Z,1.60
2022-08-30T03:44:46.524Z,0.93
2022-08-30T03:50:08.043Z,1.48
2022-08-30T03:55:30.256Z,2.38
2022-08-30T04:00:51.372Z,1.58
2022-08-30T04:06:11.898Z,1.65
2022-08-30T04:11:33.152Z,1.45
2022-08-30T04:16:53.821Z,1.60
2022-08-30T04:22:14.283Z,1.30
2022-08-30T04:27:34.951Z,1.50
2022-08-30T04:32:58.782Z,1.27
2022-08-30T04:38:22.362Z,1.23
2022-08-30T04:43:46.032Z,1.55
2022-08-30T04:49:06.601Z,1.42
2022-08-30T04:54:27.434Z,1.23
2022-08-30T04:59:47.967Z,1.40
2022-08-30T05:05:28.820Z,1.40
2022-08-30T05:10:52.404Z,1.15
2022-08-30T05:16:17.990Z,1.55
2022-08-30T05:21:40.687Z,1.17
2022-08-30T05:27:02.661Z,1.20
2022-08-30T05:32:27.188Z,1.70
2022-08-30T05:37:56.943Z,1.77
2022-08-30T05:43:17.674Z,1.38
2022-08-30T05:48:39.497Z,1.13
2022-08-30T05:53:59.790Z,1.23
2022-08-30T05:59:21.616Z,1.83
2022-08-30T06:04:42.233Z,1.20
2022-08-30T06:10:05.458Z,1.42
2022-08-30T06:15:25.771Z,1.40
2022-08-30T06:20:51.266Z,1.10
2022-08-30T06:26:12.185Z,1.27
2022-08-30T06:31:33.375Z,1.20
2022-08-30T06:36:54.372Z,1.10
2022-08-30T06:42:14.808Z,1.52
2022-08-30T06:47:35.471Z,1.20
2022-08-30T06:52:56.143Z,1.23
2022-08-30T06:58:18.026Z,1.30
2022-08-30T07:03:38.832Z,1.20
2022-08-30T07:08:59.452Z,1.40
2022-08-30T07:14:22.980Z,1.20
2022-08-30T07:19:43.719Z,1.45
2022-08-30T07:25:05.038Z,1.30
2022-08-30T07:30:25.755Z,1.23
2022-08-30T07:35:46.102Z,1.30
2022-08-30T07:41:07.011Z,1.20
2022-08-30T07:46:28.186Z,1.63
2022-08-30T07:51:49.146Z,1.90
2022-08-30T07:57:09.810Z,1.35
2022-08-30T08:02:30.736Z,1.27
2022-08-30T08:07:51.103Z,1.27
2022-08-30T08:13:11.918Z,1.58
2022-08-30T08:18:32.209Z,1.50
2022-08-30T08:23:53.549Z,1.48
2022-08-30T08:29:14.230Z,1.75
2022-08-30T08:34:35.669Z,1.30
2022-08-30T08:39:56.162Z,1.40
2022-08-30T08:45:22.882Z,1.92
2022-08-30T08:51:07.484Z,1.73
2022-08-30T08:56:28.347Z,1.55
2022-08-30T09:01:50.786Z,1.50
2022-08-30T09:07:22.999Z,1.77
2022-08-30T09:12:44.776Z,1.60
2022-08-30T09:18:16.912Z,1.83
2022-08-30T09:23:50.986Z,1.50
2022-08-30T09:29:18.370Z,1.63
2022-08-30T09:34:38.647Z,1.65
2022-08-30T09:40:00.575Z,1.80
2022-08-30T09:45:32.239Z,1.60
2022-08-30T09:51:09.622Z,1.48
2022-08-30T09:56:57.754Z,2.60
2022-08-30T10:02:52.335Z,1.75
2022-08-30T10:08:44.095Z,1.90
2022-08-30T10:14:23.214Z,1.95
2022-08-30T10:20:08.437Z,2.13
2022-08-30T10:25:48.862Z,2.00
2022-08-30T10:31:18.214Z,1.70
2022-08-30T10:36:44.460Z,2.13
2022-08-30T10:42:12.758Z,1.73
2022-08-30T10:48:09.139Z,2.22
2022-08-30T10:53:52.666Z,2.30
2022-08-30T10:59:16.986Z,2.20
2022-08-30T11:04:48.121Z,1.85
2022-08-30T11:10:32.399Z,2.10
2022-08-30T11:15:56.144Z,1.95
2022-08-30T11:21:30.195Z,1.75
2022-08-30T11:26:58.755Z,1.40
2022-08-30T11:32:44.157Z,1.42
2022-08-30T11:38:17.040Z,1.83
2022-08-30T11:43:39.915Z,1.63
2022-08-30T11:49:25.899Z,1.80
2022-08-30T11:55:03.311Z,1.75
2022-08-30T12:00:40.815Z,1.80
2022-08-30T12:06:04.603Z,2.10
2022-08-30T12:11:33.993Z,1.92
2022-08-30T12:17:14.427Z,2.10
2022-08-30T12:22:37.972Z,2.15
2022-08-30T12:33:45.062Z,2.78
2022-08-30T12:39:17.594Z,2.58
2022-08-30T12:44:38.579Z,2.97
2022-08-30T12:50:00.206Z,2.85
2022-08-30T12:55:24.518Z,2.92
2022-08-30T13:00:46.784Z,3.22
2022-08-30T13:06:08.605Z,3.42
2022-08-30T13:11:29.783Z,2.90
2022-08-30T13:16:51.234Z,3.20
2022-08-30T13:22:27.784Z,3.28
2022-08-30T13:27:48.163Z,3.00
2022-08-30T13:33:11.433Z,2.97
2022-08-30T13:38:31.880Z,2.75
2022-08-30T13:49:43.886Z,3.08
2022-08-30T13:55:06.314Z,2.75
2022-08-30T14:00:27.702Z,2.87
2022-08-30T14:05:50.688Z,2.70
2022-08-30T14:11:19.315Z,2.63
2022-08-30T14:16:42.899Z,2.60
2022-08-30T14:22:03.543Z,2.75
2022-08-30T14:27:24.697Z,2.35
2022-08-30T14:32:47.209Z,2.38
2022-08-30T14:38:08.219Z,2.20
2022-08-30T14:43:32.340Z,2.28
2022-08-30T14:48:54.344Z,2.65
2022-08-30T14:54:18.003Z,3.40
2022-08-30T14:59:38.795Z,2.63
2022-08-30T15:05:00.554Z,2.58
2022-08-30T15:10:21.714Z,2.22
2022-08-30T15:15:44.034Z,1.50
2022-08-30T15:21:04.975Z,1.88
2022-08-30T15:26:25.894Z,1.73
2022-08-30T15:31:50.313Z,2.20
2022-08-30T15:37:12.107Z,1.95
2022-08-30T15:42:33.722Z,2.08
2022-08-30T15:47:54.237Z,1.70
2022-08-30T15:53:14.671Z,1.80
2022-08-30T15:58:35.330Z,1.30
2022-08-30T16:03:55.797Z,1.77
2022-08-30T16:09:17.926Z,1.40
2022-08-30T16:14:39.086Z,2.03
2022-08-30T16:19:59.908Z,1.75
2022-08-30T16:25:20.284Z,2.00
2022-08-30T16:30:40.919Z,1.80
2022-08-30T16:36:05.421Z,1.85
2022-08-30T16:41:26.818Z,1.77
2022-08-30T16:46:53.468Z,1.50
2022-08-30T16:52:14.682Z,1.67
2022-08-30T16:57:35.002Z,1.63
2022-08-30T17:02:56.496Z,1.90
2022-08-30T17:08:17.867Z,1.52
2022-08-30T17:13:39.297Z,2.65
2022-08-30T17:19:01.149Z,2.03
2022-08-30T17:24:22.547Z,1.75
2022-08-30T17:29:45.207Z,1.60
2022-08-30T17:35:06.408Z,1.80
2022-08-30T17:40:27.111Z,1.90
2022-08-30T17:45:47.968Z,1.23
2022-08-30T17:51:08.741Z,1.15
2022-08-30T17:56:35.352Z,1.10
2022-08-30T18:01:56.797Z,0.98
2022-08-30T18:07:18.005Z,1.45
2022-08-30T18:12:41.585Z,1.00
2022-08-30T18:23:44.467Z,1.90
2022-08-30T18:29:06.875Z,3.30
2022-08-30T18:34:28.187Z,1.02
2022-08-30T18:39:49.028Z,1.10
2022-08-30T18:45:14.757Z,0.90
2022-08-30T18:50:36.312Z,1.02
2022-08-30T18:55:57.312Z,1.10
2022-08-30T19:01:22.801Z,0.75
2022-08-30T19:06:44.235Z,1.50
2022-08-30T19:12:07.775Z,1.00
2022-08-30T19:17:32.329Z,1.17
2022-08-30T19:28:36.636Z,1.00
2022-08-30T19:33:57.193Z,1.00
2022-08-30T19:39:17.840Z,1.10
2022-08-30T19:44:38.506Z,1.20
2022-08-30T19:50:00.552Z,1.30
2022-08-30T19:55:28.180Z,1.75
2022-08-30T20:00:54.142Z,2.38
2022-08-30T20:06:21.514Z,1.50
2022-08-30T20:11:42.466Z,1.70
2022-08-30T20:17:03.257Z,1.75
2022-08-30T20:22:26.713Z,1.35
2022-08-30T20:24:27.901Z,1.05
2022-08-30T20:24:33.409Z,1.45
2022-08-30T20:27:47.737Z,2.13
2022-08-30T20:33:08.971Z,1.38
2022-08-30T20:38:29.774Z,1.13
2022-08-30T20:43:51.805Z,1.10
2022-08-30T20:49:13.823Z,1.90
2022-08-30T21:02:32.914Z,1.08
2022-08-30T21:07:53.866Z,1.30
2022-08-30T21:13:14.209Z,0.98
2022-08-30T21:18:36.488Z,1.30
2022-08-30T21:24:06.745Z,0.93
2022-08-30T21:29:29.085Z,1.05
2022-08-30T21:35:08.655Z,1.30
2022-08-30T21:40:29.386Z,1.30
2022-08-30T21:45:53.446Z,1.10
2022-08-30T21:51:14.595Z,1.27
2022-08-30T21:56:37.311Z,1.05
2022-08-30T22:01:59.144Z,0.98
2022-08-30T22:07:20.271Z,1.42
2022-08-30T22:12:41.400Z,1.20
2022-08-30T22:18:02.839Z,0.77
2022-08-30T22:23:23.812Z,1.48
2022-08-30T22:28:44.468Z,1.10
2022-08-30T22:34:07.496Z,1.30
2022-08-30T22:39:28.218Z,1.20
2022-08-30T22:44:48.998Z,1.00
2022-08-30T22:50:09.940Z,1.05
2022-08-30T22:55:31.345Z,0.85
2022-08-30T23:00:54.742Z,0.88
2022-08-30T23:06:16.802Z,0.80
2022-08-30T23:11:37.512Z,0.77
2022-08-30T23:16:57.950Z,1.05
2022-08-30T23:22:18.563Z,1.42
2022-08-30T23:27:58.729Z,0.98
2022-08-30T23:33:38.304Z,1.17
2022-08-30T23:39:18.242Z,0.75
2022-08-30T23:44:57.603Z,0.82
2022-08-30T23:50:36.894Z,1.00
2022-08-30T23:56:15.973Z,1.20
